Time;durP1;ratioP1;P1;durP2;ratioP2;P2;SDS_P1;SDS_P2;PMS_P1;PMS_P2;Temp;Humidity;BMP_temperature;BMP_pressure;BME280_temperature;BME280_humidity;BME280_pressure;Samples;Min_cycle;Max_cycle;Signal;HPM_P1;HPM_P2
2022/04/05 00:00:01;;;;;;;18.63;10.73;;;;;;;;;;5042427;28;20574;-68
2022/04/05 00:02:32;;;;;;;18.90;12.25;;;;;;;;;;5034062;28;20032;-72
2022/04/05 00:04:58;;;;;;;19.13;12.07;;;;;;;;;;5037429;28;20620;-66
2022/04/05 00:07:25;;;;;;;18.13;10.93;;;;;;;;;;5030834;28;20056;-72
2022/04/05 00:09:53;;;;;;;16.17;10.55;;;;;;;;;;5034538;28;20155;-68
2022/04/05 00:12:20;;;;;;;16.15;10.13;;;;;;;;;;5035082;28;20026;-66
2022/04/05 00:14:49;;;;;;;16.33;9.43;;;;;;;;;;5033619;28;20033;-67
2022/04/05 00:17:15;;;;;;;17.52;10.45;;;;;;;;;;5032546;28;20029;-67
2022/04/05 00:19:41;;;;;;;16.88;9.93;;;;;;;;;;5035705;28;20049;-68
2022/04/05 00:22:07;;;;;;;19.65;9.82;;;;;;;;;;5030397;28;20034;-68
2022/04/05 00:24:35;;;;;;;16.20;9.93;;;;;;;;;;5039855;28;20048;-68
2022/04/05 00:27:04;;;;;;;14.85;10.02;;;;;;;;;;5046336;28;20593;-70
2022/04/05 00:29:30;;;;;;;14.45;9.50;;;;;;;;;;5033378;28;20044;-68
2022/04/05 00:31:58;;;;;;;14.98;9.88;;;;;;;;;;5030069;28;20073;-68
2022/04/05 00:34:25;;;;;;;13.93;8.82;;;;;;;;;;5032769;28;20518;-67
2022/04/05 00:36:56;;;;;;;16.13;9.18;;;;;;;;;;5043579;28;20032;-67
2022/04/05 00:39:22;;;;;;;15.75;9.18;;;;;;;;;;5031957;28;20109;-67
2022/04/05 00:41:49;;;;;;;14.13;9.95;;;;;;;;;;5031416;28;20037;-66
2022/04/05 00:44:18;;;;;;;12.73;8.80;;;;;;;;;;5031856;28;20564;-70
2022/04/05 00:46:44;;;;;;;15.07;9.45;;;;;;;;;;5033420;28;20021;-66
2022/04/05 00:49:12;;;;;;;12.52;8.85;;;;;;;;;;5032923;28;20025;-67
2022/04/05 00:51:41;;;;;;;13.45;9.35;;;;;;;;;;5031680;28;20064;-69
2022/04/05 00:54:08;;;;;;;14.73;9.20;;;;;;;;;;5030353;28;20022;-67
2022/04/05 00:56:35;;;;;;;14.52;9.68;;;;;;;;;;5034288;28;20030;-67
2022/04/05 00:59:02;;;;;;;23.23;11.65;;;;;;;;;;5032847;28;20478;-67
2022/04/05 01:01:29;;;;;;;18.00;11.60;;;;;;;;;;5035658;28;20390;-67
2022/04/05 01:03:55;;;;;;;18.20;10.30;;;;;;;;;;5033572;28;20037;-68
2022/04/05 01:06:26;;;;;;;15.73;9.45;;;;;;;;;;5033565;28;20116;-67
2022/04/05 01:08:53;;;;;;;15.93;10.60;;;;;;;;;;5030723;28;20021;-69
2022/04/05 01:11:19;;;;;;;14.75;10.13;;;;;;;;;;5049269;28;20051;-65
2022/04/05 01:13:45;;;;;;;13.27;9.88;;;;;;;;;;5034146;28;20437;-68
2022/04/05 01:16:11;;;;;;;15.77;10.25;;;;;;;;;;5034451;28;20025;-71
2022/04/05 01:18:38;;;;;;;16.48;10.07;;;;;;;;;;5052000;28;20473;-69
2022/04/05 01:21:04;;;;;;;19.13;11.30;;;;;;;;;;5050917;28;20304;-67
2022/04/05 01:23:31;;;;;;;15.30;10.10;;;;;;;;;;5032276;28;20021;-67
2022/04/05 01:25:57;;;;;;;14.93;10.18;;;;;;;;;;5032471;28;20422;-68
2022/04/05 01:28:24;;;;;;;15.68;9.77;;;;;;;;;;5031316;28;20028;-67
2022/04/05 01:30:50;;;;;;;12.35;9.05;;;;;;;;;;5031692;28;20048;-67
2022/04/05 01:33:17;;;;;;;11.73;8.32;;;;;;;;;;5039422;28;20028;-68
2022/04/05 01:35:43;;;;;;;12.02;8.52;;;;;;;;;;5031429;28;20030;-67
2022/04/05 01:38:09;;;;;;;12.23;7.82;;;;;;;;;;5029632;28;20065;-66
2022/04/05 01:40:35;;;;;;;10.73;7.88;;;;;;;;;;5031608;28;20030;-68
2022/04/05 01:43:03;;;;;;;13.00;8.18;;;;;;;;;;5036887;28;20040;-68
2022/04/05 01:45:29;;;;;;;13.00;8.50;;;;;;;;;;5046383;28;20083;-67
2022/04/05 01:47:55;;;;;;;13.27;8.35;;;;;;;;;;5040880;28;20075;-68
2022/04/05 01:50:21;;;;;;;10.70;7.65;;;;;;;;;;5032231;28;20040;-68
2022/04/05 01:52:47;;;;;;;12.15;7.20;;;;;;;;;;5034549;28;20021;-67
2022/04/05 01:55:16;;;;;;;9.93;7.13;;;;;;;;;;5037378;28;20445;-69
2022/04/05 01:57:44;;;;;;;12.02;7.60;;;;;;;;;;5040578;28;20039;-67
2022/04/05 02:00:14;;;;;;;11.52;6.85;;;;;;;;;;5037152;28;20047;-66
2022/04/05 02:02:43;;;;;;;14.95;7.28;;;;;;;;;;5046519;28;20041;-67
2022/04/05 02:05:11;;;;;;;11.68;6.50;;;;;;;;;;5039582;28;20045;-65
2022/04/05 02:07:40;;;;;;;14.35;7.32;;;;;;;;;;5031996;28;20144;-67
2022/04/05 02:10:06;;;;;;;10.95;6.90;;;;;;;;;;5031936;28;20037;-67
2022/04/05 02:12:32;;;;;;;12.88;6.97;;;;;;;;;;5032493;28;20076;-66
2022/04/05 02:14:58;;;;;;;11.52;7.50;;;;;;;;;;5029742;28;20352;-67
2022/04/05 02:17:24;;;;;;;13.77;7.50;;;;;;;;;;5031551;28;20100;-67
2022/04/05 02:19:52;;;;;;;14.05;8.02;;;;;;;;;;5038327;28;20252;-66
2022/04/05 02:22:18;;;;;;;13.15;8.27;;;;;;;;;;5031822;28;20033;-68
2022/04/05 02:24:44;;;;;;;12.40;8.52;;;;;;;;;;5036907;28;20032;-67
2022/04/05 02:27:10;;;;;;;12.63;8.00;;;;;;;;;;5031433;28;20053;-66
2022/04/05 02:29:36;;;;;;;11.45;7.45;;;;;;;;;;5032339;28;20036;-68
2022/04/05 02:32:03;;;;;;;10.60;7.53;;;;;;;;;;5031575;28;20429;-67
2022/04/05 02:34:29;;;;;;;16.65;7.95;;;;;;;;;;5031610;28;20026;-67
2022/04/05 02:36:55;;;;;;;12.85;7.70;;;;;;;;;;5038004;28;20029;-67
2022/04/05 02:39:21;;;;;;;11.77;8.00;;;;;;;;;;5031257;28;20087;-68
2022/04/05 02:41:49;;;;;;;10.13;7.68;;;;;;;;;;5033843;28;20044;-67
2022/04/05 02:44:15;;;;;;;13.00;8.32;;;;;;;;;;5035145;28;20068;-66
2022/04/05 02:46:47;;;;;;;11.45;7.68;;;;;;;;;;5036326;28;20021;-68
2022/04/05 02:49:13;;;;;;;14.13;8.07;;;;;;;;;;5034174;28;20029;-67
2022/04/05 02:51:39;;;;;;;13.40;7.95;;;;;;;;;;5035432;28;20116;-66
2022/04/05 02:54:05;;;;;;;14.20;7.95;;;;;;;;;;5039221;28;20022;-67
2022/04/05 02:56:31;;;;;;;12.27;7.85;;;;;;;;;;5034854;28;20025;-70
2022/04/05 02:58:57;;;;;;;15.77;8.88;;;;;;;;;;5031609;28;20025;-68
2022/04/05 03:01:23;;;;;;;12.68;7.93;;;;;;;;;;5034731;28;20096;-67
2022/04/05 03:03:49;;;;;;;12.50;8.50;;;;;;;;;;5034859;28;20022;-67
2022/04/05 03:06:16;;;;;;;12.52;8.45;;;;;;;;;;5034609;28;20063;-67
2022/04/05 03:08:43;;;;;;;12.45;8.50;;;;;;;;;;5035807;28;20383;-67
2022/04/05 03:11:09;;;;;;;10.93;8.27;;;;;;;;;;5035027;28;20446;-67
2022/04/05 03:13:35;;;;;;;10.60;8.48;;;;;;;;;;5036146;28;20467;-67
2022/04/05 03:16:04;;;;;;;11.68;8.00;;;;;;;;;;5034346;28;20391;-66
2022/04/05 03:18:30;;;;;;;16.77;8.48;;;;;;;;;;5035757;28;20056;-65
2022/04/05 03:20:56;;;;;;;14.93;8.60;;;;;;;;;;5032933;28;20029;-67
2022/04/05 03:23:26;;;;;;;14.65;8.82;;;;;;;;;;5034240;28;20040;-68
2022/04/05 03:25:53;;;;;;;13.73;9.15;;;;;;;;;;5035865;28;20112;-66
2022/04/05 03:28:20;;;;;;;15.27;9.07;;;;;;;;;;5037530;28;20466;-68
2022/04/05 03:30:47;;;;;;;13.07;9.10;;;;;;;;;;5036289;28;20100;-67
2022/04/05 03:33:14;;;;;;;15.23;9.90;;;;;;;;;;5034809;28;20568;-66
2022/04/05 03:35:42;;;;;;;17.58;10.35;;;;;;;;;;5032960;28;20026;-67
2022/04/05 03:38:08;;;;;;;17.60;10.80;;;;;;;;;;5032461;28;20159;-66
2022/04/05 03:40:39;;;;;;;17.08;10.60;;;;;;;;;;5042413;28;20413;-67
2022/04/05 03:43:11;;;;;;;16.48;11.23;;;;;;;;;;5035575;28;20057;-67
2022/04/05 03:45:37;;;;;;;16.08;10.98;;;;;;;;;;5034053;28;20449;-67
2022/04/05 03:48:03;;;;;;;15.98;10.85;;;;;;;;;;5048225;28;20025;-67
2022/04/05 03:50:31;;;;;;;16.85;11.05;;;;;;;;;;5044137;28;20126;-67
2022/04/05 03:52:59;;;;;;;16.20;11.50;;;;;;;;;;5035182;28;20072;-68
2022/04/05 03:55:27;;;;;;;17.88;11.38;;;;;;;;;;5032767;28;20468;-67
2022/04/05 03:57:53;;;;;;;19.38;12.60;;;;;;;;;;5033062;28;20103;-67
2022/04/05 04:00:19;;;;;;;17.83;12.13;;;;;;;;;;5034163;28;20025;-68
2022/04/05 04:02:45;;;;;;;18.27;12.50;;;;;;;;;;5035457;28;20083;-68
2022/04/05 04:05:16;;;;;;;19.27;13.10;;;;;;;;;;5033783;28;20065;-69
2022/04/05 04:07:43;;;;;;;19.50;13.40;;;;;;;;;;5032153;28;20064;-69
2022/04/05 04:10:10;;;;;;;21.13;11.90;;;;;;;;;;5033996;28;20052;-68
2022/04/05 04:12:36;;;;;;;19.30;11.82;;;;;;;;;;5034002;28;20104;-67
2022/04/05 04:15:02;;;;;;;16.25;11.18;;;;;;;;;;5033151;28;20022;-68
2022/04/05 04:17:28;;;;;;;17.05;11.10;;;;;;;;;;5033484;28;20083;-70
2022/04/05 04:19:54;;;;;;;19.05;10.27;;;;;;;;;;5032593;28;20399;-69
2022/04/05 04:22:20;;;;;;;15.40;9.60;;;;;;;;;;5031903;28;20030;-67
2022/04/05 04:24:53;;;;;;;16.85;10.20;;;;;;;;;;5033307;28;20038;-66
2022/04/05 04:27:19;;;;;;;15.50;10.20;;;;;;;;;;5032233;28;20092;-67
2022/04/05 04:29:47;;;;;;;14.63;8.98;;;;;;;;;;5032832;28;20049;-66
2022/04/05 04:32:13;;;;;;;14.88;9.57;;;;;;;;;;5033339;28;20044;-67
2022/04/05 04:34:39;;;;;;;14.45;9.82;;;;;;;;;;5034495;28;20036;-67
2022/04/05 04:37:06;;;;;;;12.35;9.27;;;;;;;;;;5033472;28;20025;-68
2022/04/05 04:39:32;;;;;;;14.95;8.77;;;;;;;;;;5033487;28;20031;-66
2022/04/05 04:42:01;;;;;;;13.57;9.25;;;;;;;;;;5029592;28;20030;-75
2022/04/05 04:44:30;;;;;;;12.88;8.15;;;;;;;;;;5033410;28;20036;-73
2022/04/05 04:46:56;;;;;;;13.50;8.70;;;;;;;;;;5032316;28;20029;-68
2022/04/05 04:49:22;;;;;;;17.52;9.38;;;;;;;;;;5041514;28;20452;-70
2022/04/05 04:51:48;;;;;;;51.65;26.75;;;;;;;;;;5048753;28;20033;-68
2022/04/05 04:54:14;;;;;;;48.53;31.73;;;;;;;;;;5038050;28;20025;-68
2022/04/05 04:56:40;;;;;;;30.52;18.75;;;;;;;;;;5038358;28;20025;-67
2022/04/05 04:59:06;;;;;;;19.88;11.02;;;;;;;;;;5032481;28;20029;-68
2022/04/05 05:01:33;;;;;;;48.25;27.27;;;;;;;;;;5024495;28;20075;-74
2022/04/05 05:03:59;;;;;;;35.33;23.20;;;;;;;;;;5033886;28;20026;-71
2022/04/05 05:06:25;;;;;;;25.10;15.82;;;;;;;;;;5033431;28;20167;-70
2022/04/05 05:08:51;;;;;;;19.92;15.30;;;;;;;;;;5036934;28;20478;-71
2022/04/05 05:11:28;;;;;;;20.33;11.77;;;;;;;;;;5032508;28;20029;-71
2022/04/05 05:13:56;;;;;;;14.60;10.63;;;;;;;;;;5033637;28;20069;-72
2022/04/05 05:16:22;;;;;;;14.48;9.35;;;;;;;;;;5032488;28;20039;-69
2022/04/05 05:18:48;;;;;;;13.10;8.20;;;;;;;;;;5035010;28;20044;-70
2022/04/05 05:21:17;;;;;;;15.32;9.43;;;;;;;;;;5044384;28;20491;-70
2022/04/05 05:23:43;;;;;;;13.70;10.18;;;;;;;;;;5040641;28;20056;-71
2022/04/05 05:26:09;;;;;;;14.82;8.93;;;;;;;;;;5039567;28;20061;-76
2022/04/05 05:28:35;;;;;;;16.38;8.00;;;;;;;;;;5036291;28;20025;-77
2022/04/05 05:31:04;;;;;;;13.63;7.47;;;;;;;;;;5047409;28;20029;-78
2022/04/05 05:33:31;;;;;;;15.70;7.38;;;;;;;;;;5036933;28;20236;-68
2022/04/05 05:35:58;;;;;;;15.30;8.32;;;;;;;;;;5031912;28;20486;-69
2022/04/05 05:38:25;;;;;;;11.38;7.65;;;;;;;;;;5032212;28;20022;-67
2022/04/05 05:40:51;;;;;;;15.05;7.20;;;;;;;;;;5035479;28;20485;-69
2022/04/05 05:43:17;;;;;;;14.23;8.02;;;;;;;;;;5025370;28;20026;-71
2022/04/05 05:45:45;;;;;;;18.45;8.27;;;;;;;;;;5035519;28;20040;-70
2022/04/05 05:48:11;;;;;;;15.52;7.43;;;;;;;;;;5028480;28;20064;-72
2022/04/05 05:50:37;;;;;;;12.98;7.40;;;;;;;;;;5029353;28;20030;-71
2022/04/05 05:53:04;;;;;;;16.05;6.65;;;;;;;;;;5034292;28;20071;-68
2022/04/05 05:55:30;;;;;;;12.18;6.93;;;;;;;;;;5027752;28;20022;-73
2022/04/05 05:57:56;;;;;;;9.38;5.85;;;;;;;;;;5036173;28;20029;-67
2022/04/05 06:00:23;;;;;;;9.82;5.75;;;;;;;;;;5030965;28;20022;-67
2022/04/05 06:02:51;;;;;;;8.75;5.63;;;;;;;;;;5031622;28;20037;-68
2022/04/05 06:05:17;;;;;;;15.43;6.13;;;;;;;;;;5031307;28;20060;-69
2022/04/05 06:07:43;;;;;;;12.60;5.93;;;;;;;;;;5029271;28;20035;-69
2022/04/05 06:10:10;;;;;;;10.20;5.82;;;;;;;;;;5032957;28;20028;-70
2022/04/05 06:12:38;;;;;;;14.45;8.63;;;;;;;;;;5032113;28;20025;-78
2022/04/05 06:15:04;;;;;;;8.45;4.90;;;;;;;;;;5036696;28;20104;-77
2022/04/05 06:17:33;;;;;;;8.13;5.10;;;;;;;;;;5036604;28;20029;-69
2022/04/05 06:19:59;;;;;;;7.50;5.30;;;;;;;;;;5042251;28;20068;-73
2022/04/05 06:22:25;;;;;;;6.97;4.30;;;;;;;;;;5039555;28;20041;-69
2022/04/05 06:24:51;;;;;;;6.63;4.30;;;;;;;;;;5029927;28;20096;-71
2022/04/05 06:27:17;;;;;;;5.63;3.95;;;;;;;;;;5037899;28;20026;-71
2022/04/05 06:29:43;;;;;;;6.60;4.30;;;;;;;;;;5039984;28;20057;-70
2022/04/05 06:32:10;;;;;;;8.07;4.85;;;;;;;;;;5040271;28;20026;-72
2022/04/05 06:34:36;;;;;;;7.82;6.30;;;;;;;;;;5036044;28;20025;-79
2022/04/05 06:37:02;;;;;;;7.18;4.72;;;;;;;;;;5039181;28;20021;-76
2022/04/05 06:39:29;;;;;;;9.10;5.32;;;;;;;;;;5037731;28;20449;-76
2022/04/05 06:41:55;;;;;;;7.65;3.95;;;;;;;;;;5034172;28;20017;-74
2022/04/05 06:44:21;;;;;;;6.38;4.35;;;;;;;;;;5039796;28;20091;-78
2022/04/05 06:46:47;;;;;;;5.88;4.10;;;;;;;;;;5040963;28;20108;-76
2022/04/05 06:49:13;;;;;;;5.78;4.15;;;;;;;;;;5034079;28;20063;-78
2022/04/05 06:51:39;;;;;;;6.25;4.28;;;;;;;;;;5045766;28;20033;-77
2022/04/05 06:54:05;;;;;;;8.93;4.00;;;;;;;;;;5035081;28;20021;-74
2022/04/05 06:56:32;;;;;;;8.80;3.80;;;;;;;;;;5035355;28;20064;-77
2022/04/05 06:58:58;;;;;;;4.18;3.38;;;;;;;;;;5030964;28;20033;-71
2022/04/05 07:01:24;;;;;;;6.93;3.50;;;;;;;;;;5043425;28;20111;-70
2022/04/05 07:03:50;;;;;;;5.10;3.30;;;;;;;;;;5041841;28;20024;-72
2022/04/05 07:06:16;;;;;;;8.27;6.05;;;;;;;;;;5036810;28;20482;-74
2022/04/05 07:08:42;;;;;;;4.75;3.17;;;;;;;;;;5039687;28;20354;-71
2022/04/05 07:11:08;;;;;;;5.82;3.00;;;;;;;;;;5042005;28;20032;-80
2022/04/05 07:13:34;;;;;;;3.63;2.78;;;;;;;;;;5049140;28;20029;-72
2022/04/05 07:16:00;;;;;;;4.93;3.08;;;;;;;;;;5035409;28;20049;-77
2022/04/05 07:18:26;;;;;;;5.07;3.88;;;;;;;;;;5034666;28;20037;-78
2022/04/05 07:20:52;;;;;;;4.90;3.42;;;;;;;;;;5033872;28;20036;-76
2022/04/05 07:23:19;;;;;;;6.53;3.30;;;;;;;;;;5039536;28;20093;-77
2022/04/05 07:25:45;;;;;;;4.95;2.92;;;;;;;;;;5033548;28;20017;-79
2022/04/05 07:28:11;;;;;;;5.25;2.80;;;;;;;;;;5038075;28;20025;-78
2022/04/05 07:30:37;;;;;;;4.75;2.80;;;;;;;;;;5034119;28;20054;-77
2022/04/05 07:33:03;;;;;;;5.57;2.22;;;;;;;;;;5032239;28;20068;-76
2022/04/05 07:35:29;;;;;;;5.90;2.90;;;;;;;;;;5048866;28;20049;-81
2022/04/05 07:37:55;;;;;;;3.25;2.40;;;;;;;;;;5037636;28;20021;-73
2022/04/05 07:40:21;;;;;;;6.15;2.70;;;;;;;;;;5045925;28;20128;-78
2022/04/05 07:42:48;;;;;;;5.65;2.80;;;;;;;;;;5042056;28;20096;-76
2022/04/05 07:45:15;;;;;;;4.20;2.45;;;;;;;;;;5034642;28;20049;-68
2022/04/05 07:47:42;;;;;;;3.53;2.42;;;;;;;;;;5029296;28;20064;-71
2022/04/05 07:50:09;;;;;;;3.88;2.60;;;;;;;;;;5029507;28;20037;-75
2022/04/05 07:52:35;;;;;;;4.40;2.65;;;;;;;;;;5039681;28;20032;-75
2022/04/05 07:55:01;;;;;;;5.88;3.38;;;;;;;;;;5036660;28;20033;-72
2022/04/05 07:57:27;;;;;;;6.03;3.35;;;;;;;;;;5044730;28;20033;-71
2022/04/05 07:59:53;;;;;;;11.05;6.15;;;;;;;;;;5037228;28;20482;-78
2022/04/05 08:02:19;;;;;;;15.13;8.32;;;;;;;;;;5038896;28;20513;-70
2022/04/05 08:04:46;;;;;;;4.57;3.10;;;;;;;;;;5034631;28;20025;-71
2022/04/05 08:07:12;;;;;;;8.25;4.68;;;;;;;;;;5034048;28;20415;-68
2022/04/05 08:09:38;;;;;;;6.00;2.70;;;;;;;;;;5034868;28;20399;-71
2022/04/05 08:12:04;;;;;;;8.07;2.95;;;;;;;;;;5037319;28;20391;-70
2022/04/05 08:14:31;;;;;;;7.00;2.80;;;;;;;;;;5033340;28;20037;-76
2022/04/05 08:16:58;;;;;;;6.30;2.60;;;;;;;;;;5037152;28;20501;-66
2022/04/05 08:19:26;;;;;;;4.82;2.78;;;;;;;;;;5041449;28;20473;-65
2022/04/05 08:21:54;;;;;;;6.13;2.90;;;;;;;;;;5042186;28;20142;-64
2022/04/05 08:24:21;;;;;;;3.60;2.80;;;;;;;;;;5034485;28;20026;-66
2022/04/05 08:26:48;;;;;;;4.70;3.20;;;;;;;;;;5031712;28;20044;-74
2022/04/05 08:29:14;;;;;;;7.53;3.08;;;;;;;;;;5031076;28;20030;-71
2022/04/05 08:31:40;;;;;;;4.07;3.30;;;;;;;;;;5034995;28;20048;-66
2022/04/05 08:34:06;;;;;;;6.60;3.42;;;;;;;;;;5032443;28;20471;-66
2022/04/05 08:36:32;;;;;;;6.18;3.55;;;;;;;;;;5025955;28;20112;-73
2022/04/05 08:38:58;;;;;;;7.80;3.33;;;;;;;;;;5028082;28;20029;-70
2022/04/05 08:41:26;;;;;;;3.80;3.15;;;;;;;;;;5030796;28;20029;-76
2022/04/05 08:43:53;;;;;;;5.15;3.60;;;;;;;;;;5034149;28;20012;-75
2022/04/05 08:46:21;;;;;;;5.72;3.50;;;;;;;;;;5038036;28;20091;-81
2022/04/05 08:48:48;;;;;;;7.47;4.07;;;;;;;;;;5040801;28;20029;-67
2022/04/05 08:51:14;;;;;;;8.00;3.88;;;;;;;;;;5037139;28;20034;-68
2022/04/05 08:53:41;;;;;;;5.80;3.55;;;;;;;;;;5035759;28;20060;-73
2022/04/05 08:56:07;;;;;;;8.60;3.40;;;;;;;;;;5030971;28;20069;-72
2022/04/05 08:58:35;;;;;;;9.10;3.78;;;;;;;;;;5033175;28;20024;-70
2022/04/05 09:01:01;;;;;;;5.50;3.20;;;;;;;;;;5038843;28;20047;-75
2022/04/05 09:03:29;;;;;;;7.50;3.47;;;;;;;;;;5030575;28;20033;-69
2022/04/05 09:05:55;;;;;;;7.97;3.20;;;;;;;;;;5032954;28;20017;-68
2022/04/05 09:08:21;;;;;;;6.07;3.05;;;;;;;;;;5046618;28;20028;-72
2022/04/05 09:10:49;;;;;;;6.88;3.38;;;;;;;;;;5028341;28;20467;-68
2022/04/05 09:13:29;;;;;;;6.82;3.50;;;;;;;;;;5030803;28;20553;-69
2022/04/05 09:15:58;;;;;;;5.78;3.20;;;;;;;;;;5014511;28;20034;-68
2022/04/05 09:18:34;;;;;;;7.30;4.22;;;;;;;;;;5018519;28;20032;-71
2022/04/05 09:21:00;;;;;;;6.00;3.50;;;;;;;;;;5032370;28;20033;-69
2022/04/05 09:23:28;;;;;;;6.20;3.45;;;;;;;;;;5033165;28;20033;-68
2022/04/05 09:26:01;;;;;;;6.40;3.50;;;;;;;;;;5032210;28;20031;-66
2022/04/05 09:28:32;;;;;;;6.38;3.45;;;;;;;;;;5032527;28;20033;-68
2022/04/05 09:30:59;;;;;;;4.57;3.40;;;;;;;;;;5032387;28;20104;-67
2022/04/05 09:33:28;;;;;;;5.35;3.60;;;;;;;;;;5032250;28;20049;-68
2022/04/05 09:36:02;;;;;;;5.72;3.88;;;;;;;;;;5031928;28;20030;-67
2022/04/05 09:38:28;;;;;;;4.85;3.35;;;;;;;;;;5031910;28;20387;-67
2022/04/05 09:40:54;;;;;;;7.80;4.20;;;;;;;;;;5030452;28;20025;-68
2022/04/05 09:43:22;;;;;;;8.27;4.68;;;;;;;;;;5027793;28;20033;-69
2022/04/05 09:45:52;;;;;;;6.72;4.32;;;;;;;;;;5032426;28;20021;-68
2022/04/05 09:48:25;;;;;;;6.22;4.60;;;;;;;;;;5032574;28;20025;-68
2022/04/05 09:50:58;;;;;;;9.00;4.97;;;;;;;;;;5038002;28;20033;-67
2022/04/05 09:53:24;;;;;;;7.32;4.75;;;;;;;;;;5035901;28;20017;-67
2022/04/05 09:56:01;;;;;;;6.72;5.20;;;;;;;;;;5038081;28;20041;-68
2022/04/05 09:58:28;;;;;;;7.22;5.10;;;;;;;;;;5033677;28;20044;-71
2022/04/05 10:01:08;;;;;;;10.32;5.40;;;;;;;;;;5035078;28;20033;-67
2022/04/05 10:03:42;;;;;;;6.78;4.78;;;;;;;;;;5035983;28;20509;-69
2022/04/05 10:06:10;;;;;;;6.18;4.57;;;;;;;;;;5038897;28;20025;-68
2022/04/05 10:08:37;;;;;;;9.25;4.55;;;;;;;;;;5035684;28;20033;-67
2022/04/05 10:11:03;;;;;;;7.68;5.53;;;;;;;;;;5035856;28;20382;-68
2022/04/05 10:13:30;;;;;;;9.65;5.22;;;;;;;;;;5035353;28;20108;-69
2022/04/05 10:16:00;;;;;;;6.95;4.43;;;;;;;;;;5036104;28;20502;-68
2022/04/05 10:18:34;;;;;;;7.72;4.65;;;;;;;;;;5036290;28;20040;-68
2022/04/05 10:21:00;;;;;;;;;;;;;;;;;;5036321;28;20041;-68
2022/04/05 10:23:26;;;;;;;8.85;5.60;;;;;;;;;;5035069;28;19913;-68
2022/04/05 10:25:53;;;;;;;6.88;4.78;;;;;;;;;;5035186;28;20030;-68
2022/04/05 10:28:41;;;;;;;8.32;4.50;;;;;;;;;;5035823;28;20022;-70
2022/04/05 10:31:20;;;;;;;6.75;4.45;;;;;;;;;;5035876;28;20021;-68
2022/04/05 10:34:04;;;;;;;8.88;4.35;;;;;;;;;;5034938;28;20505;-69
2022/04/05 10:36:34;;;;;;;6.85;4.88;;;;;;;;;;5035276;28;20084;-68
2022/04/05 10:39:15;;;;;;;7.30;4.03;;;;;;;;;;5035341;28;20116;-68
2022/04/05 10:41:42;;;;;;;6.68;4.40;;;;;;;;;;5035189;28;20025;-69
2022/04/05 10:44:28;;;;;;;4.95;4.10;;;;;;;;;;5035004;28;20528;-68
2022/04/05 10:46:58;;;;;;;7.60;3.88;;;;;;;;;;5033411;28;20048;-66
2022/04/05 10:49:42;;;;;;;9.93;3.60;;;;;;;;;;5035227;28;20025;-68
2022/04/05 10:52:30;;;;;;;9.35;5.50;;;;;;;;;;5036495;28;20406;-68
2022/04/05 10:54:59;;;;;;;6.18;3.20;;;;;;;;;;5031998;28;20433;-68
2022/04/05 10:57:32;;;;;;;6.57;3.85;;;;;;;;;;5034746;28;20556;-73
2022/04/05 11:00:04;;;;;;;7.72;3.28;;;;;;;;;;5034074;28;20029;-69
2022/04/05 11:02:37;;;;;;;6.40;3.63;;;;;;;;;;5036272;28;20053;-67
2022/04/05 11:05:06;;;;;;;5.22;3.55;;;;;;;;;;5035144;28;20033;-67
2022/04/05 11:07:53;;;;;;;4.07;2.70;;;;;;;;;;5034486;28;20071;-68
2022/04/05 11:10:20;;;;;;;16.45;3.50;;;;;;;;;;5034855;28;20021;-67
2022/04/05 11:12:46;;;;;;;4.65;3.22;;;;;;;;;;5034575;28;20022;-68
2022/04/05 11:15:15;;;;;;;5.90;3.55;;;;;;;;;;5034388;28;20382;-67
2022/04/05 11:17:42;;;;;;;6.28;4.07;;;;;;;;;;5034786;28;20482;-68
2022/04/05 11:20:09;;;;;;;5.40;3.33;;;;;;;;;;5033958;28;20537;-67
2022/04/05 11:22:36;;;;;;;7.57;3.38;;;;;;;;;;5033068;28;20029;-73
2022/04/05 11:25:04;;;;;;;4.28;3.13;;;;;;;;;;5034771;28;20048;-68
2022/04/05 11:27:30;;;;;;;16.27;10.07;;;;;;;;;;5034326;28;20057;-69
2022/04/05 11:30:15;;;;;;;12.73;6.85;;;;;;;;;;5029422;28;20429;-68
2022/04/05 11:33:01;;;;;;;5.72;3.67;;;;;;;;;;5031439;28;20046;-70
2022/04/05 11:35:27;;;;;;;4.97;3.10;;;;;;;;;;5026460;28;20025;-66
2022/04/05 11:37:53;;;;;;;6.32;3.58;;;;;;;;;;5040062;28;20038;-82
2022/04/05 11:40:19;;;;;;;6.25;3.10;;;;;;;;;;5033518;28;20060;-91
2022/04/05 11:42:46;;;;;;;5.72;3.00;;;;;;;;;;5031813;28;20033;-68
2022/04/05 11:45:12;;;;;;;6.57;2.90;;;;;;;;;;5032245;28;20108;-84
2022/04/05 11:47:38;;;;;;;5.90;3.15;;;;;;;;;;5022420;28;20104;-81
2022/04/05 11:50:12;;;;;;;9.15;3.08;;;;;;;;;;5032172;28;20437;-71
2022/04/05 11:52:38;;;;;;;4.38;3.10;;;;;;;;;;5036451;28;20543;-71
2022/04/05 11:58:02;;;;;;;5.95;2.78;;;;;;;;;;5039473;28;20039;-71
2022/04/05 12:00:28;;;;;;;5.88;3.35;;;;;;;;;;5042614;28;20014;-75
2022/04/05 12:03:05;;;;;;;7.05;4.47;;;;;;;;;;5038292;28;20537;-69
2022/04/05 12:05:44;;;;;;;8.75;3.67;;;;;;;;;;5029193;28;20034;-71
2022/04/05 12:08:25;;;;;;;6.15;3.60;;;;;;;;;;5035465;28;20029;-70
2022/04/05 12:10:51;;;;;;;8.52;5.43;;;;;;;;;;5025868;28;20045;-73
2022/04/05 12:13:27;;;;;;;5.20;3.55;;;;;;;;;;5040655;28;20441;-72
2022/04/05 12:15:57;;;;;;;6.78;3.13;;;;;;;;;;5030462;28;20044;-74
2022/04/05 12:18:24;;;;;;;5.30;3.17;;;;;;;;;;5040204;28;20026;-74
2022/04/05 12:20:56;;;;;;;6.45;4.03;;;;;;;;;;5033072;28;20036;-74
2022/04/05 12:23:23;;;;;;;4.63;3.10;;;;;;;;;;5033185;28;20025;-76
2022/04/05 12:26:07;;;;;;;6.47;3.50;;;;;;;;;;5035290;28;20059;-76
2022/04/05 12:28:34;;;;;;;4.25;2.90;;;;;;;;;;5035554;28;20068;-70
2022/04/05 12:31:11;;;;;;;5.80;3.08;;;;;;;;;;5032047;28;20025;-73
2022/04/05 12:33:41;;;;;;;8.10;3.70;;;;;;;;;;5033559;28;20432;-74
2022/04/05 12:36:07;;;;;;;3.53;2.60;;;;;;;;;;5035266;28;20079;-73
2022/04/05 12:38:33;;;;;;;6.30;4.00;;;;;;;;;;5037408;28;20394;-74
2022/04/05 12:41:02;;;;;;;6.97;3.08;;;;;;;;;;5037899;28;20087;-74
2022/04/05 12:43:28;;;;;;;7.53;3.17;;;;;;;;;;5031557;28;20513;-76
2022/04/05 12:45:54;;;;;;;5.72;3.10;;;;;;;;;;5033602;28;20514;-76
2022/04/05 12:48:21;;;;;;;5.25;3.15;;;;;;;;;;5034508;28;20026;-77
2022/04/05 12:50:49;;;;;;;8.88;4.03;;;;;;;;;;5039680;28;20083;-79
2022/04/05 12:53:26;;;;;;;5.38;3.13;;;;;;;;;;5031304;28;20018;-70
2022/04/05 12:56:14;;;;;;;5.53;3.38;;;;;;;;;;5012804;28;20063;-72
2022/04/05 12:58:40;;;;;;;8.38;3.80;;;;;;;;;;5032538;28;20477;-75
2022/04/05 13:01:18;;;;;;;8.38;5.40;;;;;;;;;;5033707;28;20063;-69
2022/04/05 13:03:45;;;;;;;11.63;5.93;;;;;;;;;;5032559;28;20026;-80
2022/04/05 13:06:20;;;;;;;10.75;7.78;;;;;;;;;;5029641;28;20053;-76
2022/04/05 13:08:47;;;;;;;23.50;8.65;;;;;;;;;;5025880;28;20044;-66
2022/04/05 13:11:29;;;;;;;5.03;3.33;;;;;;;;;;5038954;28;20378;-67
2022/04/05 13:14:13;;;;;;;5.97;3.63;;;;;;;;;;5031595;28;20087;-67
2022/04/05 13:16:39;;;;;;;9.88;4.43;;;;;;;;;;5032511;28;20086;-65
2022/04/05 13:19:07;;;;;;;6.93;3.28;;;;;;;;;;5033108;28;20407;-67
2022/04/05 13:21:39;;;;;;;8.35;3.10;;;;;;;;;;5041521;28;20029;-66
2022/04/05 13:24:08;;;;;;;4.27;2.70;;;;;;;;;;5036059;28;20033;-66
2022/04/05 13:26:34;;;;;;;7.57;3.20;;;;;;;;;;5030928;28;20271;-66
2022/04/05 13:29:07;;;;;;;5.30;2.55;;;;;;;;;;5026132;28;20018;-66
2022/04/05 13:31:34;;;;;;;6.25;3.00;;;;;;;;;;5036039;28;20029;-66
2022/04/05 13:34:00;;;;;;;7.85;3.08;;;;;;;;;;5032492;28;20026;-72
2022/04/05 13:36:26;;;;;;;10.65;3.10;;;;;;;;;;5045060;28;20489;-69
2022/04/05 13:38:52;;;;;;;6.85;3.08;;;;;;;;;;5035062;28;20026;-66
2022/04/05 13:41:18;;;;;;;7.57;2.70;;;;;;;;;;5032855;28;20041;-69
2022/04/05 13:43:44;;;;;;;7.25;2.92;;;;;;;;;;5032238;28;20021;-68
2022/04/05 13:46:10;;;;;;;4.60;2.70;;;;;;;;;;5035612;28;20030;-67
2022/04/05 13:48:40;;;;;;;6.07;4.30;;;;;;;;;;5033651;28;20055;-66
2022/04/05 13:51:06;;;;;;;6.72;3.10;;;;;;;;;;5032286;28;20486;-68
2022/04/05 13:53:34;;;;;;;6.50;2.75;;;;;;;;;;5030635;28;20030;-67
2022/04/05 13:56:01;;;;;;;11.38;6.82;;;;;;;;;;5031614;28;20033;-67
2022/04/05 13:58:27;;;;;;;19.77;11.30;;;;;;;;;;5041743;28;20029;-67
2022/04/05 14:00:55;;;;;;;9.98;5.60;;;;;;;;;;5036986;28;20017;-67
2022/04/05 14:03:21;;;;;;;7.85;3.20;;;;;;;;;;5037622;28;20156;-67
2022/04/05 14:05:47;;;;;;;13.68;7.07;;;;;;;;;;5030941;28;20037;-67
2022/04/05 14:08:13;;;;;;;17.52;9.85;;;;;;;;;;5042753;28;20052;-67
2022/04/05 14:10:39;;;;;;;16.30;6.80;;;;;;;;;;5041942;28;20028;-67
2022/04/05 14:13:06;;;;;;;17.73;13.02;;;;;;;;;;5034581;28;20033;-68
2022/04/05 14:15:32;;;;;;;6.00;4.22;;;;;;;;;;5042132;28;20032;-66
2022/04/05 14:17:58;;;;;;;5.40;2.70;;;;;;;;;;5042556;28;20092;-69
2022/04/05 14:20:24;;;;;;;8.55;2.72;;;;;;;;;;5037090;28;20526;-68
2022/04/05 14:22:50;;;;;;;4.65;3.38;;;;;;;;;;5032262;28;20083;-66
2022/04/05 14:25:18;;;;;;;7.57;2.72;;;;;;;;;;5039107;28;20025;-67
2022/04/05 14:27:44;;;;;;;5.57;3.58;;;;;;;;;;5043389;28;20423;-67
2022/04/05 14:30:11;;;;;;;6.63;2.83;;;;;;;;;;5037580;28;20387;-67
2022/04/05 14:32:37;;;;;;;8.48;3.22;;;;;;;;;;5045288;28;20376;-67
2022/04/05 14:35:03;;;;;;;4.78;2.90;;;;;;;;;;5037918;28;20525;-67
2022/04/05 14:37:29;;;;;;;5.55;2.80;;;;;;;;;;5026990;28;20479;-66
2022/04/05 14:39:55;;;;;;;5.00;2.80;;;;;;;;;;5040650;28;20014;-67
2022/04/05 14:42:22;;;;;;;5.53;2.80;;;;;;;;;;5038230;28;20548;-66